Time;durP1;ratioP1;P1;durP2;ratioP2;P2;SDS_P1;SDS_P2;PMS_P1;PMS_P2;Temp;Humidity;BMP_temperature;BMP_pressure;BME280_temperature;BME280_humidity;BME280_pressure;Samples;Min_cycle;Max_cycle;Signal;HPM_P1;HPM_P2
2023/04/08 00:01:38;;;;;;;0.28;0.28;;;;;;;;;;5071533;28;20047;-89
2023/04/08 00:04:04;;;;;;;0.20;0.00;;;;;;;;;;5055446;28;20044;-89
2023/04/08 00:06:30;;;;;;;0.00;0.00;;;;;;;;;;5055154;28;20435;-90
2023/04/08 00:08:56;;;;;;;0.65;0.25;;;;;;;;;;5071747;28;20399;-89
2023/04/08 00:11:22;;;;;;;0.00;0.00;;;;;;;;;;5054652;28;20123;-88
2023/04/08 00:13:48;;;;;;;0.00;0.00;;;;;;;;;;5071674;28;20044;-87
2023/04/08 00:16:15;;;;;;;0.00;0.00;;;;;;;;;;5054438;28;20453;-88
2023/04/08 00:18:41;;;;;;;0.00;0.00;;;;;;;;;;5054671;28;20545;-89
2023/04/08 00:21:07;;;;;;;0.00;0.00;;;;;;;;;;5071392;28;20178;-88
2023/04/08 00:23:33;;;;;;;0.00;0.00;;;;;;;;;;5071902;28;20109;-89
2023/04/08 00:25:59;;;;;;;0.00;0.00;;;;;;;;;;5054716;28;20484;-89
2023/04/08 00:28:25;;;;;;;0.00;0.00;;;;;;;;;;5071165;28;20127;-88
2023/04/08 00:30:52;;;;;;;0.00;0.00;;;;;;;;;;5070105;28;20098;-88
2023/04/08 00:33:18;;;;;;;0.00;0.00;;;;;;;;;;5054479;28;20041;-88
2023/04/08 00:35:46;;;;;;;0.22;0.05;;;;;;;;;;5070951;28;20044;-90
2023/04/08 00:38:12;;;;;;;0.00;0.00;;;;;;;;;;5054731;28;20468;-88
2023/04/08 00:40:38;;;;;;;0.00;0.00;;;;;;;;;;5054058;28;20113;-88
2023/04/08 00:43:04;;;;;;;0.00;0.00;;;;;;;;;;5071369;28;20083;-89
2023/04/08 00:45:30;;;;;;;0.20;0.10;;;;;;;;;;5070896;28;20040;-87
2023/04/08 00:47:56;;;;;;;0.00;0.00;;;;;;;;;;5071252;28;20042;-89
2023/04/08 00:50:22;;;;;;;0.00;0.00;;;;;;;;;;5054330;28;20444;-88
2023/04/08 00:52:48;;;;;;;0.00;0.00;;;;;;;;;;5054636;28;20048;-88
2023/04/08 00:55:14;;;;;;;0.00;0.00;;;;;;;;;;5070779;28;20526;-87
2023/04/08 00:57:40;;;;;;;0.00;0.00;;;;;;;;;;5071158;28;20040;-88
2023/04/08 01:00:08;;;;;;;0.00;0.00;;;;;;;;;;5054358;28;20387;-88
2023/04/08 01:02:53;;;;;;;0.00;0.00;;;;;;;;;;5054422;28;20101;-89
2023/04/08 01:05:25;;;;;;;0.00;0.00;;;;;;;;;;5054276;28;20045;-88
2023/04/08 01:07:51;;;;;;;0.30;0.20;;;;;;;;;;5054436;28;20123;-88
2023/04/08 01:10:22;;;;;;;0.00;0.00;;;;;;;;;;5050709;28;20036;-90
2023/04/08 01:12:50;;;;;;;0.00;0.00;;;;;;;;;;5034386;28;20469;-89
2023/04/08 01:15:16;;;;;;;0.00;0.00;;;;;;;;;;5034198;28;20051;-88
2023/04/08 01:17:44;;;;;;;0.00;0.00;;;;;;;;;;5034950;28;20073;-89
2023/04/08 01:20:10;;;;;;;0.00;0.00;;;;;;;;;;5034657;28;20041;-89
2023/04/08 01:22:55;;;;;;;0.20;0.10;;;;;;;;;;5050940;28;20480;-88
2023/04/08 01:25:26;;;;;;;0.00;0.00;;;;;;;;;;5034438;28;20208;-88
2023/04/08 01:27:55;;;;;;;0.00;0.00;;;;;;;;;;5050775;28;20102;-88
2023/04/08 01:30:23;;;;;;;0.00;0.00;;;;;;;;;;5034635;28;20129;-88
2023/04/08 01:32:50;;;;;;;0.00;0.00;;;;;;;;;;5034669;28;20538;-88
2023/04/08 01:35:17;;;;;;;0.00;0.00;;;;;;;;;;5034032;28;20056;-89
2023/04/08 01:37:44;;;;;;;0.00;0.00;;;;;;;;;;5034435;28;20044;-89
2023/04/08 01:40:10;;;;;;;0.00;0.00;;;;;;;;;;5033969;28;20484;-89
2023/04/08 01:42:37;;;;;;;0.00;0.00;;;;;;;;;;5052912;28;20032;-89
2023/04/08 01:45:03;;;;;;;0.00;0.00;;;;;;;;;;5038078;28;20041;-90
2023/04/08 01:47:30;;;;;;;0.00;0.00;;;;;;;;;;5037722;28;20045;-88
2023/04/08 01:49:56;;;;;;;0.10;0.10;;;;;;;;;;5037786;28;20183;-88
2023/04/08 01:52:25;;;;;;;0.00;0.00;;;;;;;;;;5038035;28;20041;-88
2023/04/08 01:54:51;;;;;;;0.00;0.00;;;;;;;;;;5037518;28;20057;-88
2023/04/08 01:57:20;;;;;;;0.00;0.00;;;;;;;;;;5037697;28;20052;-87
2023/04/08 01:59:48;;;;;;;0.00;0.00;;;;;;;;;;5038031;28;20513;-88
2023/04/08 02:02:14;;;;;;;0.32;0.08;;;;;;;;;;5054534;28;20094;-89
2023/04/08 02:04:40;;;;;;;0.00;0.00;;;;;;;;;;5054875;28;20110;-89
2023/04/08 02:07:07;;;;;;;0.00;0.00;;;;;;;;;;5038276;28;20083;-90
2023/04/08 02:09:33;;;;;;;0.00;0.00;;;;;;;;;;5038781;28;20457;-89
2023/04/08 02:12:00;;;;;;;0.00;0.00;;;;;;;;;;5037531;28;20068;-89
2023/04/08 02:14:26;;;;;;;0.00;0.00;;;;;;;;;;5037878;28;20435;-89
2023/04/08 02:17:03;;;;;;;0.00;0.00;;;;;;;;;;5054045;28;20041;-89
2023/04/08 02:19:31;;;;;;;0.00;0.00;;;;;;;;;;5037893;28;20036;-89
2023/04/08 02:22:01;;;;;;;0.10;0.10;;;;;;;;;;5054080;28;20519;-89
2023/04/08 02:24:29;;;;;;;0.00;0.00;;;;;;;;;;5054257;28;20484;-90
2023/04/08 02:26:55;;;;;;;0.00;0.00;;;;;;;;;;5037261;28;20484;-89
2023/04/08 02:29:21;;;;;;;0.00;0.00;;;;;;;;;;5037352;28;20123;-88
2023/04/08 02:31:48;;;;;;;0.00;0.00;;;;;;;;;;5037378;28;20048;-90
2023/04/08 02:34:15;;;;;;;0.00;0.00;;;;;;;;;;5037207;28;20037;-89
2023/04/08 02:36:44;;;;;;;0.00;0.00;;;;;;;;;;5036821;28;20044;-89
2023/04/08 02:39:10;;;;;;;0.00;0.00;;;;;;;;;;5053955;28;20068;-88
2023/04/08 02:41:36;;;;;;;0.15;0.08;;;;;;;;;;5053598;28;20086;-89
2023/04/08 02:44:02;;;;;;;0.00;0.00;;;;;;;;;;5053264;28;20040;-89
2023/04/08 02:46:28;;;;;;;0.00;0.00;;;;;;;;;;5053422;28;20098;-89
2023/04/08 02:48:55;;;;;;;0.00;0.00;;;;;;;;;;5036775;28;20076;-90
2023/04/08 02:51:21;;;;;;;0.00;0.00;;;;;;;;;;5036790;28;20033;-89
2023/04/08 02:53:47;;;;;;;1.00;1.00;;;;;;;;;;5052082;28;20556;-90
2023/04/08 02:56:13;;;;;;;0.00;0.00;;;;;;;;;;5053270;28;20072;-91
2023/04/08 02:58:39;;;;;;;0.00;0.00;;;;;;;;;;5036645;28;20036;-88
2023/04/08 03:01:05;;;;;;;0.00;0.00;;;;;;;;;;5036680;28;20464;-90
2023/04/08 03:03:31;;;;;;;0.00;0.00;;;;;;;;;;5053222;28;20091;-90
2023/04/08 03:05:57;;;;;;;0.00;0.00;;;;;;;;;;5036553;28;20041;-88
2023/04/08 03:08:24;;;;;;;0.00;0.00;;;;;;;;;;5036443;28;20048;-90
2023/04/08 03:10:50;;;;;;;0.00;0.00;;;;;;;;;;5036643;28;20048;-90
2023/04/08 03:13:16;;;;;;;0.00;0.00;;;;;;;;;;5035942;28;20091;-88
2023/04/08 03:15:42;;;;;;;0.00;0.00;;;;;;;;;;5036432;28;20040;-89
2023/04/08 03:18:08;;;;;;;0.15;0.00;;;;;;;;;;5052537;28;20052;-90
2023/04/08 03:20:35;;;;;;;0.15;0.10;;;;;;;;;;5036440;28;20408;-90
2023/04/08 03:23:01;;;;;;;0.00;0.00;;;;;;;;;;5052481;28;20044;-89
2023/04/08 03:25:28;;;;;;;0.00;0.00;;;;;;;;;;5036338;28;20041;-90
2023/04/08 03:27:54;;;;;;;0.00;0.00;;;;;;;;;;5035930;28;20476;-88
2023/04/08 03:30:20;;;;;;;0.00;0.00;;;;;;;;;;5036170;28;20404;-90
2023/04/08 03:32:46;;;;;;;0.00;0.00;;;;;;;;;;5036220;28;20460;-88
2023/04/08 03:35:12;;;;;;;0.00;0.00;;;;;;;;;;5036132;28;20045;-89
2023/04/08 03:37:38;;;;;;;0.00;0.00;;;;;;;;;;5052856;28;20060;-89
2023/04/08 03:40:05;;;;;;;0.00;0.00;;;;;;;;;;5035917;28;20047;-89
2023/04/08 03:42:31;;;;;;;0.40;0.32;;;;;;;;;;5035389;28;20381;-89
2023/04/08 03:44:57;;;;;;;0.00;0.00;;;;;;;;;;5052493;28;20055;-89
2023/04/08 03:47:23;;;;;;;0.00;0.00;;;;;;;;;;5035428;28;20132;-90
2023/04/08 03:49:52;;;;;;;0.00;0.00;;;;;;;;;;5036391;28;20044;-89
2023/04/08 03:52:18;;;;;;;0.00;0.00;;;;;;;;;;5052110;28;20147;-88
2023/04/08 03:54:44;;;;;;;0.00;0.00;;;;;;;;;;5052225;28;20069;-88
2023/04/08 03:57:10;;;;;;;0.95;0.17;;;;;;;;;;5035149;28;20481;-90
2023/04/08 03:59:38;;;;;;;0.00;0.00;;;;;;;;;;5052085;28;20487;-89
2023/04/08 04:02:04;;;;;;;0.00;0.00;;;;;;;;;;5035351;28;20426;-89
2023/04/08 04:04:30;;;;;;;0.00;0.00;;;;;;;;;;5051895;28;20041;-90
2023/04/08 04:06:56;;;;;;;0.00;0.00;;;;;;;;;;5035426;28;20040;-89
2023/04/08 04:09:22;;;;;;;0.00;0.00;;;;;;;;;;5035313;28;20037;-90
2023/04/08 04:11:48;;;;;;;0.20;0.13;;;;;;;;;;5051680;28;20349;-88
2023/04/08 04:14:14;;;;;;;0.00;0.00;;;;;;;;;;5034756;28;20052;-89
2023/04/08 04:16:40;;;;;;;0.20;0.10;;;;;;;;;;5035251;28;20047;-89
2023/04/08 04:19:06;;;;;;;0.00;0.00;;;;;;;;;;5051528;28;20052;-89
2023/04/08 04:21:32;;;;;;;0.00;0.00;;;;;;;;;;5035234;28;20037;-89
2023/04/08 04:23:58;;;;;;;0.00;0.00;;;;;;;;;;5034634;28;20037;-90
2023/04/08 04:26:24;;;;;;;0.00;0.00;;;;;;;;;;5051908;28;20507;-91
2023/04/08 04:28:50;;;;;;;0.22;0.08;;;;;;;;;;5051639;28;20127;-90
2023/04/08 04:31:21;;;;;;;0.00;0.00;;;;;;;;;;5034915;28;20056;-88
2023/04/08 04:33:47;;;;;;;0.00;0.00;;;;;;;;;;5051898;28;20052;-90
2023/04/08 04:36:13;;;;;;;0.00;0.00;;;;;;;;;;5034802;28;20151;-89
2023/04/08 04:38:39;;;;;;;0.00;0.00;;;;;;;;;;5034603;28;20051;-89
2023/04/08 04:41:05;;;;;;;0.00;0.00;;;;;;;;;;5035205;28;20072;-91
2023/04/08 04:43:31;;;;;;;0.00;0.00;;;;;;;;;;5034831;28;20553;-89
2023/04/08 04:45:58;;;;;;;0.00;0.00;;;;;;;;;;5034573;28;20036;-88
2023/04/08 04:48:24;;;;;;;0.00;0.00;;;;;;;;;;5051289;28;20131;-89
2023/04/08 04:50:57;;;;;;;0.00;0.00;;;;;;;;;;5051248;28;20044;-89
2023/04/08 04:53:23;;;;;;;0.00;0.00;;;;;;;;;;5049015;28;20069;-89
2023/04/08 04:55:52;;;;;;;0.40;0.22;;;;;;;;;;4998659;28;20045;-89
2023/04/08 04:58:18;;;;;;;0.00;0.00;;;;;;;;;;4998658;28;20048;-90
2023/04/08 05:00:45;;;;;;;0.00;0.00;;;;;;;;;;4998471;28;20041;-89
2023/04/08 05:03:11;;;;;;;0.00;0.00;;;;;;;;;;4998522;28;20487;-89
2023/04/08 05:05:37;;;;;;;0.00;0.00;;;;;;;;;;4998493;28;20082;-89
2023/04/08 05:08:03;;;;;;;0.00;0.00;;;;;;;;;;4998067;28;20062;-89
2023/04/08 05:10:29;;;;;;;0.00;0.00;;;;;;;;;;4998391;28;20045;-89
2023/04/08 05:12:55;;;;;;;0.00;0.00;;;;;;;;;;4998033;28;20481;-88
2023/04/08 05:15:22;;;;;;;0.00;0.00;;;;;;;;;;4998353;28;20342;-89
2023/04/08 05:17:47;;;;;;;0.00;0.00;;;;;;;;;;5017420;28;20515;-90
2023/04/08 05:20:13;;;;;;;0.00;0.00;;;;;;;;;;5018761;28;20120;-89
2023/04/08 05:22:41;;;;;;;0.00;0.00;;;;;;;;;;5002412;28;20037;-90
2023/04/08 05:25:08;;;;;;;0.00;0.00;;;;;;;;;;5002319;28;20484;-89
2023/04/08 05:27:35;;;;;;;0.00;0.00;;;;;;;;;;5002566;28;20057;-90
2023/04/08 05:30:01;;;;;;;0.00;0.00;;;;;;;;;;5002277;28;20076;-90
2023/04/08 05:32:28;;;;;;;0.00;0.00;;;;;;;;;;5002260;28;20045;-89
2023/04/08 05:34:54;;;;;;;0.00;0.00;;;;;;;;;;5018138;28;20052;-90
2023/04/08 05:37:20;;;;;;;0.00;0.00;;;;;;;;;;5001939;28;20046;-90
2023/04/08 05:39:46;;;;;;;0.00;0.00;;;;;;;;;;5001856;28;20128;-89
2023/04/08 05:42:12;;;;;;;0.00;0.00;;;;;;;;;;5002154;28;20064;-90
2023/04/08 05:44:40;;;;;;;0.00;0.00;;;;;;;;;;5002136;28;20397;-91
2023/04/08 05:47:06;;;;;;;1.08;0.10;;;;;;;;;;5001792;28;20038;-89
2023/04/08 05:49:33;;;;;;;0.03;0.03;;;;;;;;;;5002064;28;20045;-90
2023/04/08 05:51:59;;;;;;;0.00;0.00;;;;;;;;;;5001790;28;20469;-89
2023/04/08 05:54:25;;;;;;;0.00;0.00;;;;;;;;;;5018601;28;20089;-89
2023/04/08 05:56:51;;;;;;;0.00;0.00;;;;;;;;;;5037932;28;20123;-91
2023/04/08 05:59:17;;;;;;;0.00;0.00;;;;;;;;;;5037937;28;20128;-89
2023/04/08 06:01:43;;;;;;;0.00;0.00;;;;;;;;;;5037896;28;20044;-90
2023/04/08 06:04:10;;;;;;;0.00;0.00;;;;;;;;;;5038864;28;20110;-90
2023/04/08 06:06:39;;;;;;;0.13;0.05;;;;;;;;;;5054417;28;20420;-90
2023/04/08 06:09:05;;;;;;;0.00;0.00;;;;;;;;;;5054052;28;20044;-89
2023/04/08 06:11:31;;;;;;;0.00;0.00;;;;;;;;;;5038114;28;20044;-89
2023/04/08 06:13:57;;;;;;;0.00;0.00;;;;;;;;;;5037528;28;20048;-92
2023/04/08 06:16:23;;;;;;;0.00;0.00;;;;;;;;;;5037925;28;20048;-90
2023/04/08 06:18:52;;;;;;;0.00;0.00;;;;;;;;;;5037266;28;20045;-90
2023/04/08 06:21:18;;;;;;;0.00;0.00;;;;;;;;;;5038023;28;20041;-90
2023/04/08 06:23:45;;;;;;;0.00;0.00;;;;;;;;;;5053921;28;20037;-91
2023/04/08 06:26:13;;;;;;;0.00;0.00;;;;;;;;;;5037471;28;20136;-93
2023/04/08 06:28:41;;;;;;;0.00;0.00;;;;;;;;;;5037644;28;20106;-91
2023/04/08 06:31:10;;;;;;;0.00;0.00;;;;;;;;;;5037575;28;20498;-91
2023/04/08 06:33:42;;;;;;;0.00;0.00;;;;;;;;;;5038426;28;20080;-90
2023/04/08 06:36:08;;;;;;;0.00;0.00;;;;;;;;;;5037131;28;20036;-89
2023/04/08 06:38:34;;;;;;;0.00;0.00;;;;;;;;;;5037051;28;20473;-89
2023/04/08 06:41:07;;;;;;;0.00;0.00;;;;;;;;;;5037040;28;20037;-93
2023/04/08 06:43:34;;;;;;;0.45;0.30;;;;;;;;;;5037164;28;20563;-91
2023/04/08 06:46:00;;;;;;;0.00;0.00;;;;;;;;;;5037340;28;20064;-90
2023/04/08 06:48:29;;;;;;;0.00;0.00;;;;;;;;;;5036938;28;20071;-90
2023/04/08 06:50:59;;;;;;;0.00;0.00;;;;;;;;;;5039291;28;20207;-93
2023/04/08 06:53:26;;;;;;;0.00;0.00;;;;;;;;;;5037659;28;20090;-92
2023/04/08 06:55:52;;;;;;;0.00;0.00;;;;;;;;;;5003224;28;20076;-91
2023/04/08 06:58:21;;;;;;;0.35;0.10;;;;;;;;;;5003002;28;20045;-91
2023/04/08 07:00:47;;;;;;;0.10;0.00;;;;;;;;;;5001152;28;20042;-91
2023/04/08 07:03:14;;;;;;;0.10;0.10;;;;;;;;;;5001142;28;20077;-93
2023/04/08 07:05:41;;;;;;;0.47;0.10;;;;;;;;;;5001250;28;20192;-89
2023/04/08 07:08:07;;;;;;;0.55;0.35;;;;;;;;;;5000801;28;20045;-90
2023/04/08 07:10:34;;;;;;;0.45;0.20;;;;;;;;;;5000971;28;20128;-90
2023/04/08 07:13:00;;;;;;;0.00;0.00;;;;;;;;;;5016982;28;20556;-89
2023/04/08 07:15:26;;;;;;;0.00;0.00;;;;;;;;;;5031786;28;20079;-92
2023/04/08 07:17:55;;;;;;;0.17;0.00;;;;;;;;;;5020932;28;20041;-90
2023/04/08 07:20:21;;;;;;;0.95;0.00;;;;;;;;;;5019188;28;20041;-90
2023/04/08 07:22:47;;;;;;;0.00;0.00;;;;;;;;;;5020024;28;20056;-91
2023/04/08 07:25:13;;;;;;;0.35;0.20;;;;;;;;;;5020228;28;20037;-91
2023/04/08 07:27:40;;;;;;;0.00;0.00;;;;;;;;;;5020476;28;20036;-91
2023/04/08 07:30:06;;;;;;;0.90;0.13;;;;;;;;;;5019871;28;20111;-90
2023/04/08 07:32:33;;;;;;;0.10;0.10;;;;;;;;;;5036853;28;20051;-91
2023/04/08 07:34:59;;;;;;;0.08;0.08;;;;;;;;;;5019560;28;20479;-90
2023/04/08 07:37:25;;;;;;;0.05;0.05;;;;;;;;;;5036037;28;20053;-89
2023/04/08 07:39:51;;;;;;;0.20;0.20;;;;;;;;;;5019222;28;20349;-90
2023/04/08 07:42:17;;;;;;;0.00;0.00;;;;;;;;;;5020246;28;20427;-90
2023/04/08 07:44:45;;;;;;;0.00;0.00;;;;;;;;;;5019614;28;20071;-91
2023/04/08 07:47:11;;;;;;;0.00;0.00;;;;;;;;;;5019438;28;20048;-90
2023/04/08 07:49:37;;;;;;;0.20;0.00;;;;;;;;;;5019628;28;20040;-90
2023/04/08 07:52:04;;;;;;;0.00;0.00;;;;;;;;;;5040779;28;20129;-90
2023/04/08 07:54:33;;;;;;;0.00;0.00;;;;;;;;;;5020794;28;20060;-91
2023/04/08 07:57:01;;;;;;;0.00;0.00;;;;;;;;;;5021473;28;20037;-89
2023/04/08 07:59:27;;;;;;;0.13;0.10;;;;;;;;;;5020500;28;20045;-89
2023/04/08 08:01:53;;;;;;;0.00;0.00;;;;;;;;;;5019568;28;20037;-90
2023/04/08 08:04:19;;;;;;;0.00;0.00;;;;;;;;;;5035342;28;20191;-89
2023/04/08 08:06:46;;;;;;;0.00;0.00;;;;;;;;;;5019587;28;20087;-90
2023/04/08 08:09:12;;;;;;;0.00;0.00;;;;;;;;;;5035352;28;20418;-90
2023/04/08 08:11:38;;;;;;;0.30;0.10;;;;;;;;;;5018819;28;20392;-89
2023/04/08 08:14:04;;;;;;;0.22;0.10;;;;;;;;;;5019163;28;20049;-89
2023/04/08 08:16:32;;;;;;;0.00;0.00;;;;;;;;;;5018742;28;20040;-90
2023/04/08 08:18:58;;;;;;;0.00;0.00;;;;;;;;;;5035575;28;20128;-88
2023/04/08 08:21:25;;;;;;;0.30;0.28;;;;;;;;;;5018937;28;20044;-89
2023/04/08 08:23:53;;;;;;;0.00;0.00;;;;;;;;;;5018841;28;20087;-89
2023/04/08 08:26:20;;;;;;;0.45;0.20;;;;;;;;;;5018531;28;20373;-89
2023/04/08 08:28:46;;;;;;;0.00;0.00;;;;;;;;;;5019218;28;20404;-90
2023/04/08 08:31:12;;;;;;;0.00;0.00;;;;;;;;;;5034971;28;20098;-91
2023/04/08 08:33:38;;;;;;;0.00;0.00;;;;;;;;;;5018816;28;20076;-90
2023/04/08 08:36:06;;;;;;;0.00;0.00;;;;;;;;;;5014829;28;20045;-90
2023/04/08 08:38:32;;;;;;;0.25;0.00;;;;;;;;;;5012854;28;20041;-91
2023/04/08 08:40:58;;;;;;;0.60;0.22;;;;;;;;;;5018294;28;20041;-90
2023/04/08 08:43:25;;;;;;;0.00;0.00;;;;;;;;;;5021849;28;20107;-89
2023/04/08 08:45:51;;;;;;;0.00;0.00;;;;;;;;;;5015070;28;20124;-90
2023/04/08 08:48:17;;;;;;;0.00;0.00;;;;;;;;;;5013641;28;20032;-90
2023/04/08 08:50:43;;;;;;;0.00;0.00;;;;;;;;;;5014431;28;20041;-90
2023/04/08 08:53:09;;;;;;;0.00;0.00;;;;;;;;;;4998200;28;20053;-89
2023/04/08 08:55:37;;;;;;;0.20;0.20;;;;;;;;;;5037922;28;20372;-90
2023/04/08 08:58:03;;;;;;;0.00;0.00;;;;;;;;;;5071297;28;20090;-90
2023/04/08 09:00:37;;;;;;;0.00;0.00;;;;;;;;;;5041525;28;20120;-88
2023/04/08 09:03:23;;;;;;;0.00;0.00;;;;;;;;;;5039777;28;20504;-89
2023/04/08 09:05:49;;;;;;;0.00;0.00;;;;;;;;;;5046112;28;20041;-90
2023/04/08 09:08:25;;;;;;;0.22;0.13;;;;;;;;;;5051119;28;20068;-90
2023/04/08 09:10:51;;;;;;;0.00;0.00;;;;;;;;;;5034736;28;20037;-90
2023/04/08 09:13:17;;;;;;;0.00;0.00;;;;;;;;;;5052909;28;20381;-89
2023/04/08 09:16:05;;;;;;;0.00;0.00;;;;;;;;;;5054309;28;20048;-89
2023/04/08 09:18:32;;;;;;;1.08;0.73;;;;;;;;;;5054275;28;20363;-91
2023/04/08 09:21:05;;;;;;;0.28;0.22;;;;;;;;;;5054603;28;20079;-91
2023/04/08 09:23:38;;;;;;;0.00;0.00;;;;;;;;;;5054902;28;20043;-88
2023/04/08 09:26:09;;;;;;;0.20;0.20;;;;;;;;;;5054087;28;20033;-90
2023/04/08 09:28:35;;;;;;;0.00;0.00;;;;;;;;;;5071163;28;20052;-89
2023/04/08 09:31:01;;;;;;;0.00;0.00;;;;;;;;;;5054181;28;20559;-89
2023/04/08 09:33:30;;;;;;;0.00;0.00;;;;;;;;;;5070903;28;20126;-91
2023/04/08 09:35:57;;;;;;;0.00;0.00;;;;;;;;;;5053918;28;20036;-90
2023/04/08 09:38:23;;;;;;;0.00;0.00;;;;;;;;;;5053933;28;20080;-91
2023/04/08 09:40:50;;;;;;;0.05;0.03;;;;;;;;;;5053943;28;20036;-90
2023/04/08 09:43:21;;;;;;;0.00;0.00;;;;;;;;;;5053739;28;20036;-89
2023/04/08 09:45:47;;;;;;;0.00;0.00;;;;;;;;;;5053946;28;20044;-89
2023/04/08 09:48:18;;;;;;;0.00;0.00;;;;;;;;;;5054129;28;20107;-90
2023/04/08 09:50:47;;;;;;;0.00;0.00;;;;;;;;;;5053736;28;20102;-91
2023/04/08 09:53:17;;;;;;;0.00;0.00;;;;;;;;;;5070876;28;20071;-91
2023/04/08 09:55:43;;;;;;;0.00;0.00;;;;;;;;;;5070442;28;20125;-91
2023/04/08 09:58:18;;;;;;;0.22;0.00;;;;;;;;;;5053765;28;20041;-90
2023/04/08 10:00:49;;;;;;;1.30;0.40;;;;;;;;;;5053874;28;20545;-90
2023/04/08 10:03:18;;;;;;;0.00;0.00;;;;;;;;;;5055483;28;20530;-90
2023/04/08 10:05:46;;;;;;;0.40;0.28;;;;;;;;;;5073788;28;20037;-89
2023/04/08 10:08:12;;;;;;;0.00;0.00;;;;;;;;;;5057624;28;20045;-90
2023/04/08 10:10:39;;;;;;;0.00;0.00;;;;;;;;;;5074578;28;20063;-89
2023/04/08 10:13:06;;;;;;;0.22;0.00;;;;;;;;;;5057295;28;20138;-89
2023/04/08 10:15:37;;;;;;;0.00;0.00;;;;;;;;;;5073682;28;20311;-89
2023/04/08 10:18:06;;;;;;;0.00;0.00;;;;;;;;;;5073684;28;20051;-89
2023/04/08 10:20:35;;;;;;;0.00;0.00;;;;;;;;;;5057008;28;20037;-88
2023/04/08 10:23:02;;;;;;;0.00;0.00;;;;;;;;;;5057014;28;20044;-89
2023/04/08 10:25:32;;;;;;;0.00;0.00;;;;;;;;;;5057203;28;20146;-91
2023/04/08 10:27:59;;;;;;;0.00;0.00;;;;;;;;;;5057539;28;20424;-90
2023/04/08 10:30:30;;;;;;;0.00;0.00;;;;;;;;;;5073746;28;20114;-91
2023/04/08 10:33:00;;;;;;;0.00;0.00;;;;;;;;;;5056624;28;20040;-90
2023/04/08 10:35:35;;;;;;;0.00;0.00;;;;;;;;;;5059842;28;20200;-90
2023/04/08 10:38:01;;;;;;;0.00;0.00;;;;;;;;;;5057979;28;20036;-90
2023/04/08 10:40:40;;;;;;;0.00;0.00;;;;;;;;;;5058099;28;20040;-90
2023/04/08 10:43:06;;;;;;;0.00;0.00;;;;;;;;;;5056833;28;20403;-90
2023/04/08 10:45:32;;;;;;;0.00;0.00;;;;;;;;;;5056981;28;20036;-91
2023/04/08 10:48:17;;;;;;;0.00;0.00;;;;;;;;;;5056997;28;20106;-90
2023/04/08 10:50:44;;;;;;;0.00;0.00;;;;;;;;;;5073532;28;20432;-91
2023/04/08 10:53:10;;;;;;;0.00;0.00;;;;;;;;;;5056452;28;20044;-90
2023/04/08 10:55:36;;;;;;;0.00;0.00;;;;;;;;;;5056141;28;20061;-91
2023/04/08 10:58:08;;;;;;;3.03;0.10;;;;;;;;;;5057875;28;20396;-91
2023/04/08 11:00:36;;;;;;;0.40;0.32;;;;;;;;;;5057005;28;20041;-90
2023/04/08 11:03:02;;;;;;;0.00;0.00;;;;;;;;;;5057034;28;20114;-89
2023/04/08 11:05:28;;;;;;;0.00;0.00;;;;;;;;;;5056761;28;20444;-90
2023/04/08 11:07:54;;;;;;;0.00;0.00;;;;;;;;;;5072733;28;20565;-90
2023/04/08 11:10:23;;;;;;;0.00;0.00;;;;;;;;;;5056493;28;20044;-90
2023/04/08 11:12:49;;;;;;;0.00;0.00;;;;;;;;;;5055987;28;20049;-89
2023/04/08 11:15:15;;;;;;;0.43;0.28;;;;;;;;;;5055086;28;20045;-90
2023/04/08 11:17:42;;;;;;;0.15;0.13;;;;;;;;;;5055875;28;20135;-89
2023/04/08 11:20:08;;;;;;;0.00;0.00;;;;;;;;;;5056436;28;20043;-90
2023/04/08 11:22:35;;;;;;;0.00;0.00;;;;;;;;;;5055963;28;20317;-91
2023/04/08 11:25:01;;;;;;;0.00;0.00;;;;;;;;;;5055944;28;20404;-90
2023/04/08 11:27:27;;;;;;;0.00;0.00;;;;;;;;;;5056061;28;20047;-90
2023/04/08 11:29:55;;;;;;;0.00;0.00;;;;;;;;;;5055833;28;20071;-91
2023/04/08 11:32:22;;;;;;;0.20;0.17;;;;;;;;;;5055663;28;20036;-90
2023/04/08 11:34:48;;;;;;;0.10;0.00;;;;;;;;;;5055748;28;20480;-90
2023/04/08 11:37:14;;;;;;;0.00;0.00;;;;;;;;;;5055352;28;20043;-90
2023/04/08 11:39:42;;;;;;;0.00;0.00;;;;;;;;;;5056152;28;20043;-90
2023/04/08 11:42:11;;;;;;;0.00;0.00;;;;;;;;;;5055492;28;20539;-90
2023/04/08 11:44:40;;;;;;;0.00;0.00;;;;;;;;;;5055694;28;20032;-91
2023/04/08 11:47:06;;;;;;;0.00;0.00;;;;;;;;;;5055822;28;20040;-90
2023/04/08 11:49:45;;;;;;;0.00;0.00;;;;;;;;;;5055733;28;20182;-92
2023/04/08 11:52:13;;;;;;;0.00;0.00;;;;;;;;;;5055538;28;20044;-91
2023/04/08 11:54:42;;;;;;;0.10;0.10;;;;;;;;;;5055389;28;20078;-90
2023/04/08 11:57:09;;;;;;;0.00;0.00;;;;;;;;;;5055428;28;20097;-92
2023/04/08 11:59:35;;;;;;;3.38;0.55;;;;;;;;;;5055322;28;20044;-92
2023/04/08 12:02:02;;;;;;;0.10;0.00;;;;;;;;;;5072524;28;20981;-91
2023/04/08 12:04:28;;;;;;;0.00;0.00;;;;;;;;;;5055421;28;20125;-91
2023/04/08 12:06:55;;;;;;;0.00;0.00;;;;;;;;;;5055405;28;20044;-92
2023/04/08 12:09:21;;;;;;;0.00;0.00;;;;;;;;;;5071752;28;20036;-90
2023/04/08 12:11:47;;;;;;;0.00;0.00;;;;;;;;;;5055676;28;20047;-91
2023/04/08 12:14:13;;;;;;;0.00;0.00;;;;;;;;;;5055376;28;20040;-92
2023/04/08 12:16:39;;;;;;;0.00;0.00;;;;;;;;;;5072072;28;20094;-91
2023/04/08 12:19:05;;;;;;;0.00;0.00;;;;;;;;;;5071642;28;20069;-91
2023/04/08 12:21:34;;;;;;;0.03;0.00;;;;;;;;;;5055107;28;20076;-92
2023/04/08 12:24:00;;;;;;;0.00;0.00;;;;;;;;;;5055268;28;20152;-90
2023/04/08 12:26:26;;;;;;;0.00;0.00;;;;;;;;;;5055591;28;20033;-91
2023/04/08 12:28:52;;;;;;;0.00;0.00;;;;;;;;;;5055195;28;20052;-92
2023/04/08 12:31:18;;;;;;;0.00;0.00;;;;;;;;;;5055495;28;20175;-91
2023/04/08 12:33:45;;;;;;;0.00;0.00;;;;;;;;;;5071292;28;20048;-92
2023/04/08 12:36:14;;;;;;;0.17;0.10;;;;;;;;;;5071973;28;20036;-91
2023/04/08 12:38:40;;;;;;;0.00;0.00;;;;;;;;;;5055792;28;20138;-91
2023/04/08 12:41:06;;;;;;;0.00;0.00;;;;;;;;;;5056066;28;20449;-91
2023/04/08 12:43:33;;;;;;;0.10;0.10;;;;;;;;;;5055534;28;20456;-91
2023/04/08 12:46:00;;;;;;;0.00;0.00;;;;;;;;;;5055243;28;20076;-89
2023/04/08 12:48:29;;;;;;;0.00;0.00;;;;;;;;;;5054603;28;20041;-91
2023/04/08 12:50:55;;;;;;;0.00;0.00;;;;;;;;;;5055274;28;20044;-91
2023/04/08 12:53:21;;;;;;;0.00;0.00;;;;;;;;;;5055095;28;20438;-92
2023/04/08 12:55:47;;;;;;;0.00;0.00;;;;;;;;;;5055162;28;20056;-91
2023/04/08 12:58:15;;;;;;;0.00;0.00;;;;;;;;;;5054900;28;20117;-91
2023/04/08 13:00:45;;;;;;;0.20;0.20;;;;;;;;;;5056113;28;20040;-93
2023/04/08 13:03:12;;;;;;;0.00;0.00;;;;;;;;;;5055177;28;20043;-91
2023/04/08 13:05:38;;;;;;;0.00;0.00;;;;;;;;;;5071484;28;20121;-90
2023/04/08 13:08:04;;;;;;;0.55;0.20;;;;;;;;;;5054503;28;20036;-91
2023/04/08 13:10:31;;;;;;;0.10;0.10;;;;;;;;;;5071423;28;20041;-92
2023/04/08 13:12:57;;;;;;;0.32;0.20;;;;;;;;;;5070725;28;20352;-91
2023/04/08 13:15:26;;;;;;;0.10;0.00;;;;;;;;;;5054864;28;20040;-92
2023/04/08 13:17:53;;;;;;;0.00;0.00;;;;;;;;;;5054415;28;20041;-91
2023/04/08 13:20:24;;;;;;;1.58;0.40;;;;;;;;;;5054748;28;20052;-91
2023/04/08 13:22:50;;;;;;;0.00;0.00;;;;;;;;;;5054980;28;20395;-90
2023/04/08 13:25:16;;;;;;;0.00;0.00;;;;;;;;;;5055832;28;20036;-90
2023/04/08 13:27:42;;;;;;;0.10;0.00;;;;;;;;;;5071793;28;20541;-89
2023/04/08 13:30:09;;;;;;;0.00;0.00;;;;;;;;;;5072145;28;20036;-90
2023/04/08 13:32:35;;;;;;;0.43;0.43;;;;;;;;;;5055078;28;20480;-91
2023/04/08 13:35:01;;;;;;;0.00;0.00;;;;;;;;;;5071605;28;20442;-90
2023/04/08 13:37:32;;;;;;;0.00;0.00;;;;;;;;;;5055013;28;20476;-90
2023/04/08 13:39:58;;;;;;;0.25;0.10;;;;;;;;;;5058364;28;20131;-89
2023/04/08 13:42:24;;;;;;;0.00;0.00;;;;;;;;;;5058208;28;20130;-89
2023/04/08 13:44:51;;;;;;;0.00;0.00;;;;;;;;;;5058149;28;20036;-91
2023/04/08 13:47:17;;;;;;;0.00;0.00;;;;;;;;;;5058493;28;20044;-90
2023/04/08 13:49:43;;;;;;;0.00;0.00;;;;;;;;;;5058032;28;20466;-91
2023/04/08 13:52:09;;;;;;;0.00;0.00;;;;;;;;;;5058203;28;20506;-89
2023/04/08 13:54:36;;;;;;;0.00;0.00;;;;;;;;;;5074175;28;20139;-91
2023/04/08 13:57:02;;;;;;;0.00;0.00;;;;;;;;;;5057941;28;20045;-91
2023/04/08 13:59:28;;;;;;;1.55;0.25;;;;;;;;;;5057541;28;20045;-89
2023/04/08 14:01:54;;;;;;;0.10;0.10;;;;;;;;;;5074613;28;20091;-89
2023/04/08 14:04:21;;;;;;;0.00;0.00;;;;;;;;;;5074186;28;20483;-90
2023/04/08 14:06:49;;;;;;;0.00;0.00;;;;;;;;;;5074113;28;20040;-90
2023/04/08 14:09:15;;;;;;;0.88;0.85;;;;;;;;;;5057830;28;20105;-94
2023/04/08 14:11:41;;;;;;;0.43;0.10;;;;;;;;;;5074254;28;20056;-92
2023/04/08 14:14:07;;;;;;;0.10;0.03;;;;;;;;;;5057394;28;20113;-90
2023/04/08 14:16:34;;;;;;;0.00;0.00;;;;;;;;;;5073755;28;20045;-88
2023/04/08 14:19:00;;;;;;;0.00;0.00;;;;;;;;;;5057190;28;20036;-89
2023/04/08 14:21:26;;;;;;;0.00;0.00;;;;;;;;;;5057150;28;20041;-89
2023/04/08 14:23:53;;;;;;;0.75;0.30;;;;;;;;;;5073727;28;20037;-92
2023/04/08 14:26:19;;;;;;;0.00;0.00;;;;;;;;;;5057269;28;20040;-90
2023/04/08 14:28:46;;;;;;;0.70;0.20;;;;;;;;;;5056829;28;20514;-90
2023/04/08 14:31:12;;;;;;;2.85;0.95;;;;;;;;;;5057816;28;20040;-89
2023/04/08 14:33:39;;;;;;;0.17;0.10;;;;;;;;;;5056742;28;20044;-89
2023/04/08 14:36:05;;;;;;;1.20;0.55;;;;;;;;;;5057006;28;20468;-90
2023/04/08 14:38:32;;;;;;;0.35;0.20;;;;;;;;;;5056594;28;20040;-90
2023/04/08 14:40:58;;;;;;;0.13;0.03;;;;;;;;;;5057432;28;20036;-89
2023/04/08 14:43:24;;;;;;;1.15;1.08;;;;;;;;;;5073286;28;20040;-90